Time;durP1;ratioP1;P1;durP2;ratioP2;P2;SDS_P1;SDS_P2;PMS_P1;PMS_P2;Temp;Humidity;BMP_temperature;BMP_pressure;BME280_temperature;BME280_humidity;BME280_pressure;Samples;Min_cycle;Max_cycle;Signal;HPM_P1;HPM_P2
2023/10/09 00:02:08;;;;;;;4.70;1.50;;;;;;;;;;4962586;28;20222;-86
2023/10/09 00:04:36;;;;;;;2.80;1.53;;;;;;;;;;4943555;28;20349;-86
2023/10/09 00:07:08;;;;;;;3.13;1.67;;;;;;;;;;4960417;28;20226;-85
2023/10/09 00:09:48;;;;;;;4.40;1.70;;;;;;;;;;4977299;28;20833;-85
2023/10/09 00:12:22;;;;;;;3.33;1.40;;;;;;;;;;4974830;28;20316;-85
2023/10/09 00:14:50;;;;;;;4.20;1.90;;;;;;;;;;4993464;28;20245;-85
2023/10/09 00:17:18;;;;;;;4.43;2.00;;;;;;;;;;4968921;28;20230;-86
2023/10/09 00:19:47;;;;;;;12.33;1.77;;;;;;;;;;4966509;28;20230;-86
2023/10/09 00:22:38;;;;;;;2.80;1.30;;;;;;;;;;4992066;28;20215;-85
2023/10/09 00:25:10;;;;;;;4.40;1.90;;;;;;;;;;4979657;28;20230;-85
2023/10/09 00:27:46;;;;;;;5.40;1.83;;;;;;;;;;4981893;28;20224;-85
2023/10/09 00:30:21;;;;;;;2.70;1.60;;;;;;;;;;4980535;28;20723;-83
2023/10/09 00:33:07;;;;;;;7.33;1.73;;;;;;;;;;4997286;28;20225;-84
2023/10/09 00:35:36;;;;;;;3.70;1.57;;;;;;;;;;4983277;28;20228;-84
2023/10/09 00:38:07;;;;;;;4.60;1.80;;;;;;;;;;4976372;28;20218;-86
2023/10/09 00:40:35;;;;;;;3.77;1.60;;;;;;;;;;4981668;28;20320;-85
2023/10/09 00:43:06;;;;;;;4.30;1.67;;;;;;;;;;4975152;28;20221;-85
2023/10/09 00:45:39;;;;;;;3.63;1.50;;;;;;;;;;4998838;28;20896;-85
2023/10/09 00:48:08;;;;;;;4.47;1.83;;;;;;;;;;4947324;28;20230;-86
2023/10/09 00:50:38;;;;;;;2.77;1.60;;;;;;;;;;4978589;28;20220;-85
2023/10/09 00:53:09;;;;;;;4.80;1.87;;;;;;;;;;4965078;28;20218;-85
2023/10/09 00:58:14;;;;;;;3.23;1.57;;;;;;;;;;4975514;28;20230;-85
2023/10/09 01:00:46;;;;;;;3.80;2.00;;;;;;;;;;4946364;28;20760;-84
2023/10/09 01:05:57;;;;;;;5.73;1.80;;;;;;;;;;4968911;28;20221;-83
2023/10/09 01:08:47;;;;;;;7.53;2.00;;;;;;;;;;4989917;28;20240;-86
2023/10/09 01:11:21;;;;;;;4.83;1.93;;;;;;;;;;4964018;28;20469;-86
2023/10/09 01:16:31;;;;;;;4.43;1.90;;;;;;;;;;4974950;28;20895;-87
2023/10/09 01:19:00;;;;;;;2.87;1.90;;;;;;;;;;4961048;28;20658;-86
2023/10/09 01:21:26;;;;;;;5.40;1.90;;;;;;;;;;4956941;28;20222;-87
2023/10/09 01:24:13;;;;;;;3.20;1.87;;;;;;;;;;4962108;28;20714;-84
2023/10/09 01:26:44;;;;;;;4.53;1.70;;;;;;;;;;5006832;28;20225;-85
2023/10/09 01:29:23;;;;;;;4.00;2.07;;;;;;;;;;5001625;28;20221;-84
2023/10/09 01:31:56;;;;;;;3.50;1.70;;;;;;;;;;4970982;28;20243;-85
2023/10/09 01:34:34;;;;;;;5.53;2.33;;;;;;;;;;4999830;28;20232;-84
2023/10/09 01:37:05;;;;;;;2.57;2.00;;;;;;;;;;4971243;28;20237;-85
2023/10/09 01:39:39;;;;;;;2.40;1.90;;;;;;;;;;4999956;28;20262;-85
2023/10/09 01:42:08;;;;;;;3.90;1.97;;;;;;;;;;4982388;28;20766;-85
2023/10/09 01:44:43;;;;;;;3.10;2.00;;;;;;;;;;4992609;28;20635;-84
2023/10/09 01:47:14;;;;;;;2.80;1.87;;;;;;;;;;4993056;28;20291;-84
2023/10/09 01:49:43;;;;;;;2.70;1.97;;;;;;;;;;4965553;28;20232;-84
2023/10/09 01:52:16;;;;;;;4.30;2.27;;;;;;;;;;5000818;28;20225;-84
2023/10/09 01:54:47;;;;;;;4.90;1.77;;;;;;;;;;4987579;28;20300;-85
2023/10/09 01:57:22;;;;;;;2.67;1.80;;;;;;;;;;4978708;28;20247;-84
2023/10/09 01:59:53;;;;;;;3.33;1.57;;;;;;;;;;4977990;28;20247;-85
2023/10/09 02:07:40;;;;;;;2.90;1.80;;;;;;;;;;4986213;28;20231;-85
2023/10/09 02:10:32;;;;;;;4.13;1.93;;;;;;;;;;4950799;28;20218;-85
2023/10/09 02:13:07;;;;;;;4.67;2.17;;;;;;;;;;4968390;28;20313;-85
2023/10/09 02:18:18;;;;;;;6.70;2.10;;;;;;;;;;4983199;28;20235;-84
2023/10/09 02:20:45;;;;;;;5.17;2.43;;;;;;;;;;5002255;28;20647;-87
2023/10/09 02:23:24;;;;;;;4.40;2.37;;;;;;;;;;4979954;28;20221;-84
2023/10/09 02:25:57;;;;;;;2.80;1.80;;;;;;;;;;4974288;28;20249;-85
2023/10/09 02:28:23;;;;;;;2.93;1.70;;;;;;;;;;5016263;28;20271;-84
2023/10/09 02:30:48;;;;;;;3.97;2.17;;;;;;;;;;4974468;28;20214;-83
2023/10/09 02:33:27;;;;;;;4.73;2.10;;;;;;;;;;4985643;28;20317;-83
2023/10/09 02:35:59;;;;;;;4.50;2.33;;;;;;;;;;4979164;28;20213;-84
2023/10/09 02:38:26;;;;;;;5.73;2.30;;;;;;;;;;4978368;28;20326;-84
2023/10/09 02:41:18;;;;;;;3.60;2.20;;;;;;;;;;4973930;28;20225;-84
2023/10/09 02:44:10;;;;;;;4.93;2.40;;;;;;;;;;4984681;28;20228;-85
2023/10/09 02:46:36;;;;;;;6.90;2.53;;;;;;;;;;4994976;28;20216;-85
2023/10/09 02:49:06;;;;;;;3.40;2.17;;;;;;;;;;4987851;28;20730;-85
2023/10/09 02:51:41;;;;;;;3.63;2.20;;;;;;;;;;4970572;28;20221;-85
2023/10/09 02:54:34;;;;;;;3.80;2.20;;;;;;;;;;4958852;28;20222;-85
2023/10/09 02:57:07;;;;;;;3.00;1.83;;;;;;;;;;4989104;28;20233;-85
2023/10/09 02:59:37;;;;;;;3.43;2.07;;;;;;;;;;5000548;28;20234;-85
2023/10/09 03:02:04;;;;;;;4.07;1.90;;;;;;;;;;4997148;28;20296;-85
2023/10/09 03:04:30;;;;;;;3.50;2.20;;;;;;;;;;4979298;28;20229;-84
2023/10/09 03:06:57;;;;;;;4.67;2.40;;;;;;;;;;4967603;28;20225;-84
2023/10/09 03:09:32;;;;;;;3.87;2.30;;;;;;;;;;4979166;28;20241;-85
2023/10/09 03:12:12;;;;;;;2.97;2.07;;;;;;;;;;4965668;28;20221;-85
2023/10/09 03:14:41;;;;;;;3.90;2.50;;;;;;;;;;5007323;28;20612;-83
2023/10/09 03:17:12;;;;;;;5.63;2.70;;;;;;;;;;4984280;28;20248;-84
2023/10/09 03:19:43;;;;;;;3.43;2.20;;;;;;;;;;4973596;28;20217;-84
2023/10/09 03:22:19;;;;;;;4.07;2.10;;;;;;;;;;4964968;28;20218;-84
2023/10/09 03:24:49;;;;;;;3.60;2.17;;;;;;;;;;4988949;28;20217;-84
2023/10/09 03:27:15;;;;;;;2.40;2.20;;;;;;;;;;4982221;28;20208;-83
2023/10/09 03:29:49;;;;;;;3.80;2.40;;;;;;;;;;4987726;28;20222;-84
2023/10/09 03:32:17;;;;;;;6.13;2.53;;;;;;;;;;4980176;28;20686;-85
2023/10/09 03:34:45;;;;;;;6.63;2.40;;;;;;;;;;4961813;28;20228;-83
2023/10/09 03:37:34;;;;;;;3.33;2.13;;;;;;;;;;4978441;28;20209;-84
2023/10/09 03:40:04;;;;;;;4.57;2.00;;;;;;;;;;4954297;28;20225;-84
2023/10/09 03:42:30;;;;;;;2.93;2.20;;;;;;;;;;4965964;28;20240;-83
2023/10/09 03:45:18;;;;;;;3.67;2.40;;;;;;;;;;4997306;28;20593;-80
2023/10/09 03:47:48;;;;;;;3.20;2.20;;;;;;;;;;4991802;28;20233;-80
2023/10/09 03:50:26;;;;;;;2.70;1.90;;;;;;;;;;4965503;28;20241;-80
2023/10/09 03:52:54;;;;;;;2.30;2.10;;;;;;;;;;4999276;28;20240;-80
2023/10/09 03:55:21;;;;;;;5.03;2.50;;;;;;;;;;5011238;28;20289;-79
2023/10/09 03:57:50;;;;;;;2.50;2.20;;;;;;;;;;4999694;28;20228;-79
2023/10/09 04:04:10;;;;;;;6.80;2.50;;;;;;;;;;5009757;28;20237;-79
2023/10/09 04:06:37;;;;;;;5.10;2.77;;;;;;;;;;5001333;28;20594;-80
2023/10/09 04:09:39;;;;;;;4.73;2.30;;;;;;;;;;4988302;28;20224;-78
2023/10/09 04:14:54;;;;;;;2.77;2.13;;;;;;;;;;4986996;28;20220;-78
2023/10/09 04:25:40;;;;;;;5.73;2.27;;;;;;;;;;4979089;28;20248;-79
2023/10/09 04:30:42;;;;;;;4.03;2.50;;;;;;;;;;5003571;28;20222;-80
2023/10/09 04:33:27;;;;;;;4.00;2.37;;;;;;;;;;4985527;28;20699;-80
2023/10/09 04:36:16;;;;;;;3.90;2.80;;;;;;;;;;4996506;28;20227;-79
2023/10/09 04:44:29;;;;;;;3.10;2.60;;;;;;;;;;4973916;28;20228;-78
2023/10/09 04:57:37;;;;;;;3.53;2.57;;;;;;;;;;4988387;28;20764;-80
2023/10/09 05:00:22;;;;;;;4.63;2.97;;;;;;;;;;4973972;28;20237;-80
2023/10/09 05:02:54;;;;;;;7.53;2.53;;;;;;;;;;4983629;28;20291;-80
2023/10/09 05:16:18;;;;;;;4.20;2.63;;;;;;;;;;4961937;28;20226;-79
2023/10/09 05:18:45;;;;;;;3.20;2.43;;;;;;;;;;4983205;28;20397;-79
2023/10/09 05:24:16;;;;;;;5.07;2.50;;;;;;;;;;4962506;28;20252;-82
2023/10/09 05:35:05;;;;;;;3.40;2.50;;;;;;;;;;4982757;28;20332;-81
2023/10/09 05:37:32;;;;;;;4.07;3.30;;;;;;;;;;4955750;28;20284;-78
2023/10/09 05:50:58;;;;;;;3.37;3.00;;;;;;;;;;5004698;28;20217;-78
2023/10/09 06:07:13;;;;;;;3.50;3.20;;;;;;;;;;4961866;28;20256;-77
2023/10/09 06:09:52;;;;;;;3.30;3.03;;;;;;;;;;4971130;28;20271;-80
2023/10/09 06:15:19;;;;;;;4.50;3.47;;;;;;;;;;4978970;28;20256;-74
2023/10/09 06:17:59;;;;;;;4.00;3.33;;;;;;;;;;4979064;28;20252;-70
2023/10/09 06:21:06;;;;;;;3.93;3.50;;;;;;;;;;4980167;28;20252;-72
2023/10/09 06:23:50;;;;;;;3.90;3.50;;;;;;;;;;4975856;28;20641;-72
2023/10/09 06:26:23;;;;;;;4.97;3.73;;;;;;;;;;4971342;28;20249;-72
2023/10/09 06:29:14;;;;;;;6.33;4.03;;;;;;;;;;4992219;28;20714;-73
2023/10/09 06:31:57;;;;;;;3.87;3.57;;;;;;;;;;4971044;28;21889;-73
2023/10/09 06:34:32;;;;;;;4.87;4.37;;;;;;;;;;4973281;28;20261;-72
2023/10/09 06:37:18;;;;;;;4.80;4.37;;;;;;;;;;4955166;28;20308;-71
2023/10/09 06:45:18;;;;;;;5.57;5.17;;;;;;;;;;4954068;28;20825;-72
2023/10/09 06:48:07;;;;;;;7.30;5.00;;;;;;;;;;4982215;28;20333;-73
2023/10/09 06:51:03;;;;;;;5.80;5.20;;;;;;;;;;4971649;28;20233;-72
2023/10/09 06:57:12;;;;;;;5.97;4.67;;;;;;;;;;4978394;28;20309;-73
2023/10/09 06:59:41;;;;;;;8.10;5.23;;;;;;;;;;4978933;28;20216;-72
2023/10/09 07:02:45;;;;;;;5.37;4.97;;;;;;;;;;4990556;28;20730;-73
2023/10/09 07:05:10;;;;;;;5.23;4.77;;;;;;;;;;4968098;28;21591;-72
2023/10/09 07:07:50;;;;;;;5.50;5.00;;;;;;;;;;4993224;28;20713;-72
2023/10/09 07:10:32;;;;;;;4.93;4.53;;;;;;;;;;4994029;28;20218;-72
2023/10/09 07:13:03;;;;;;;5.53;5.03;;;;;;;;;;4982657;28;20228;-72
2023/10/09 07:18:23;;;;;;;5.57;5.07;;;;;;;;;;4984730;28;20295;-72
2023/10/09 07:21:11;;;;;;;5.27;4.70;;;;;;;;;;4991400;28;20299;-71
2023/10/09 07:23:48;;;;;;;5.63;4.63;;;;;;;;;;4988051;28;20229;-72
2023/10/09 07:26:18;;;;;;;5.10;4.70;;;;;;;;;;4966006;28;20226;-72
2023/10/09 07:28:48;;;;;;;4.87;4.50;;;;;;;;;;4947522;28;20312;-73
2023/10/09 07:31:27;;;;;;;5.07;4.67;;;;;;;;;;4983426;28;20332;-72
2023/10/09 07:33:58;;;;;;;6.87;4.70;;;;;;;;;;4943041;28;20230;-71
2023/10/09 07:36:37;;;;;;;5.00;4.60;;;;;;;;;;4960619;28;20652;-73
2023/10/09 07:39:17;;;;;;;4.80;4.37;;;;;;;;;;4974412;28;20225;-72
2023/10/09 07:41:55;;;;;;;5.50;4.90;;;;;;;;;;4980653;28;20283;-72
2023/10/09 07:44:34;;;;;;;5.30;4.80;;;;;;;;;;4973505;28;20301;-73
2023/10/09 07:47:19;;;;;;;12.30;8.83;;;;;;;;;;4966219;28;20221;-72
2023/10/09 07:49:59;;;;;;;7.70;7.00;;;;;;;;;;4942116;28;20233;-72
2023/10/09 07:52:27;;;;;;;5.33;4.90;;;;;;;;;;4993396;28;20312;-71
2023/10/09 07:55:01;;;;;;;5.97;5.37;;;;;;;;;;4963935;28;20647;-72
2023/10/09 07:57:38;;;;;;;5.20;4.80;;;;;;;;;;4992658;28;20221;-72
2023/10/09 08:01:06;;;;;;;5.77;5.27;;;;;;;;;;4994619;28;20209;-73
2023/10/09 08:03:00;;;;;;;7.07;5.90;;;;;;;;;;4976073;28;20217;-72
2023/10/09 08:05:33;;;;;;;5.90;5.30;;;;;;;;;;4992872;28;20372;-72
2023/10/09 08:13:56;;;;;;;6.30;5.80;;;;;;;;;;5005595;28;20304;-72
2023/10/09 08:16:24;;;;;;;6.43;5.83;;;;;;;;;;4975488;28;20265;-72
2023/10/09 08:18:51;;;;;;;6.40;5.60;;;;;;;;;;4992618;28;20236;-73
2023/10/09 08:21:41;;;;;;;6.23;5.73;;;;;;;;;;4976360;28;20214;-73
2023/10/09 08:24:40;;;;;;;6.80;6.10;;;;;;;;;;4984921;28;20257;-73
2023/10/09 08:27:46;;;;;;;7.00;5.00;;;;;;;;;;4988729;28;20301;-72
2023/10/09 08:29:47;;;;;;;6.40;5.80;;;;;;;;;;4979590;28;20246;-73
2023/10/09 08:32:18;;;;;;;11.57;6.63;;;;;;;;;;4965013;28;20214;-73
2023/10/09 08:34:53;;;;;;;6.60;5.93;;;;;;;;;;4950749;28;20262;-72
2023/10/09 08:37:24;;;;;;;7.17;6.27;;;;;;;;;;4949436;28;20264;-73
2023/10/09 08:39:54;;;;;;;7.27;6.40;;;;;;;;;;4980728;28;20304;-73
2023/10/09 08:42:23;;;;;;;6.80;6.20;;;;;;;;;;4961200;28;20236;-73
2023/10/09 08:44:52;;;;;;;6.70;6.10;;;;;;;;;;4950081;28;20235;-73
2023/10/09 08:47:19;;;;;;;6.47;5.87;;;;;;;;;;4953182;28;20231;-73
2023/10/09 08:49:47;;;;;;;8.27;6.70;;;;;;;;;;4945163;28;20228;-72
2023/10/09 08:52:15;;;;;;;7.37;6.53;;;;;;;;;;4962372;28;20786;-73
2023/10/09 08:54:44;;;;;;;6.63;6.03;;;;;;;;;;4946544;28;20285;-73
2023/10/09 08:57:14;;;;;;;7.30;6.60;;;;;;;;;;4965068;28;20783;-73
2023/10/09 08:59:46;;;;;;;7.57;6.53;;;;;;;;;;4966778;28;20283;-72
2023/10/09 09:02:11;;;;;;;6.83;6.17;;;;;;;;;;4947363;28;20287;-70
2023/10/09 09:04:40;;;;;;;6.50;5.90;;;;;;;;;;4979774;28;20686;-73
2023/10/09 09:07:31;;;;;;;7.17;6.33;;;;;;;;;;4971066;28;20221;-71
2023/10/09 09:10:21;;;;;;;7.90;7.10;;;;;;;;;;4973943;28;20731;-71
2023/10/09 09:12:53;;;;;;;9.50;6.57;;;;;;;;;;4983193;28;20217;-71
2023/10/09 09:15:19;;;;;;;6.67;6.07;;;;;;;;;;4978696;28;20217;-73
2023/10/09 09:17:49;;;;;;;7.40;6.67;;;;;;;;;;4956980;28;20221;-70
2023/10/09 09:20:45;;;;;;;6.20;5.60;;;;;;;;;;4973049;28;20213;-71
2023/10/09 09:23:12;;;;;;;6.67;6.00;;;;;;;;;;4979836;28;20313;-71
2023/10/09 09:25:44;;;;;;;6.67;6.03;;;;;;;;;;4990778;28;20221;-71
2023/10/09 09:28:19;;;;;;;6.43;5.83;;;;;;;;;;4976353;28;20313;-71
2023/10/09 09:30:50;;;;;;;6.43;5.83;;;;;;;;;;4973881;28;20304;-71
2023/10/09 09:33:39;;;;;;;7.00;5.83;;;;;;;;;;4967981;28;20218;-71
2023/10/09 09:36:07;;;;;;;6.33;5.83;;;;;;;;;;5009498;28;20222;-72
2023/10/09 09:38:51;;;;;;;6.83;6.23;;;;;;;;;;4974192;28;20221;-71
2023/10/09 09:41:24;;;;;;;6.57;6.00;;;;;;;;;;4972242;28;20742;-72
2023/10/09 09:43:56;;;;;;;6.27;5.77;;;;;;;;;;4976881;28;20238;-72
2023/10/09 09:46:33;;;;;;;7.43;6.30;;;;;;;;;;4990123;28;20603;-72
2023/10/09 09:49:05;;;;;;;6.60;5.97;;;;;;;;;;4945815;28;20216;-72
2023/10/09 09:51:31;;;;;;;7.63;6.93;;;;;;;;;;4984346;28;20229;-72
2023/10/09 09:53:57;;;;;;;7.40;6.70;;;;;;;;;;4979354;28;20320;-72
2023/10/09 09:56:28;;;;;;;7.30;6.60;;;;;;;;;;4989764;28;20228;-72
2023/10/09 09:58:53;;;;;;;7.22;6.45;;;;;;;;;;4973190;28;20665;-71
2023/10/09 10:01:24;;;;;;;7.00;6.40;;;;;;;;;;4982650;28;20223;-72
2023/10/09 10:04:11;;;;;;;7.30;6.70;;;;;;;;;;4972466;28;20839;-72
2023/10/09 10:06:40;;;;;;;8.57;7.73;;;;;;;;;;4988760;28;20227;-72
2023/10/09 10:09:12;;;;;;;7.20;6.60;;;;;;;;;;4980258;28;20225;-72
2023/10/09 10:11:52;;;;;;;8.80;8.00;;;;;;;;;;4977924;28;20234;-72
2023/10/09 10:14:31;;;;;;;8.20;7.50;;;;;;;;;;4978450;28;20289;-71
2023/10/09 10:17:21;;;;;;;9.40;8.47;;;;;;;;;;4970122;28;20240;-71
2023/10/09 10:22:51;;;;;;;10.20;9.30;;;;;;;;;;4984246;28;20257;-72
2023/10/09 10:26:13;;;;;;;11.63;10.57;;;;;;;;;;4975338;28;20226;-72
2023/10/09 10:31:07;;;;;;;13.63;12.40;;;;;;;;;;4986727;28;20244;-72
2023/10/09 10:34:06;;;;;;;15.67;14.07;;;;;;;;;;4977133;28;20241;-72
2023/10/09 10:36:34;;;;;;;15.53;14.07;;;;;;;;;;4989265;28;20224;-72
2023/10/09 10:41:55;;;;;;;14.70;13.20;;;;;;;;;;4983599;28;20595;-72
2023/10/09 10:45:25;;;;;;;14.03;12.60;;;;;;;;;;4968933;28;20233;-72
2023/10/09 10:47:32;;;;;;;14.70;13.20;;;;;;;;;;4973920;28;20230;-72
2023/10/09 10:49:58;;;;;;;23.17;16.13;;;;;;;;;;4976082;28;20718;-73
2023/10/09 10:52:35;;;;;;;21.38;19.10;;;;;;;;;;4954656;28;20237;-72
2023/10/09 10:55:17;;;;;;;27.57;22.63;;;;;;;;;;5001951;28;20229;-74
2023/10/09 10:58:00;;;;;;;26.10;22.90;;;;;;;;;;4962330;28;20877;-74
2023/10/09 11:03:23;;;;;;;36.20;29.40;;;;;;;;;;4988901;28;20231;-73
2023/10/09 11:05:52;;;;;;;37.23;31.53;;;;;;;;;;4999890;28;20235;-73
2023/10/09 11:08:22;;;;;;;39.70;31.03;;;;;;;;;;4975399;28;20241;-73
2023/10/09 11:10:53;;;;;;;39.40;30.95;;;;;;;;;;4998680;28;20229;-72
2023/10/09 11:14:08;;;;;;;39.70;31.83;;;;;;;;;;4978452;28;20791;-72
2023/10/09 11:16:15;;;;;;;37.45;33.42;;;;;;;;;;4986976;28;20221;-74
2023/10/09 11:18:45;;;;;;;39.17;32.58;;;;;;;;;;4973735;28;20820;-74
2023/10/09 11:26:25;;;;;;;39.67;30.70;;;;;;;;;;4982802;28;20220;-73
2023/10/09 11:32:05;;;;;;;34.22;30.42;;;;;;;;;;4981176;28;20229;-71
2023/10/09 11:34:37;;;;;;;34.70;30.75;;;;;;;;;;4994208;28;20311;-73
2023/10/09 11:37:15;;;;;;;38.28;31.83;;;;;;;;;;4980194;28;20221;-74
2023/10/09 11:39:52;;;;;;;31.95;27.85;;;;;;;;;;4991955;28;20283;-72
2023/10/09 11:45:20;;;;;;;31.73;27.05;;;;;;;;;;4961503;28;20329;-78
2023/10/09 11:48:04;;;;;;;30.30;27.05;;;;;;;;;;4995995;28;20225;-79
2023/10/09 11:50:55;;;;;;;32.70;27.27;;;;;;;;;;4982254;28;20256;-79
2023/10/09 11:55:48;;;;;;;28.85;25.80;;;;;;;;;;4976637;28;20229;-81
2023/10/09 11:58:24;;;;;;;27.20;24.40;;;;;;;;;;4976044;28;20243;-80
2023/10/09 12:00:51;;;;;;;26.83;23.90;;;;;;;;;;4969895;28;20797;-81
2023/10/09 12:03:17;;;;;;;26.83;24.00;;;;;;;;;;4961428;28;20265;-81
2023/10/09 12:05:44;;;;;;;26.83;24.23;;;;;;;;;;4985465;28;20241;-79
2023/10/09 12:08:15;;;;;;;26.13;23.38;;;;;;;;;;4941788;28;20233;-81
2023/10/09 12:10:41;;;;;;;25.00;22.35;;;;;;;;;;4951416;28;20253;-80
2023/10/09 12:13:07;;;;;;;23.80;21.30;;;;;;;;;;4995522;23;20685;-75
2023/10/09 12:15:39;;;;;;;22.38;20.15;;;;;;;;;;4979396;28;20232;-74
2023/10/09 12:18:09;;;;;;;22.25;19.60;;;;;;;;;;4992662;28;20786;-75
2023/10/09 12:20:35;;;;;;;23.38;21.08;;;;;;;;;;4994162;28;20222;-73
2023/10/09 12:23:06;;;;;;;23.73;21.42;;;;;;;;;;4976882;28;20230;-74
2023/10/09 12:25:32;;;;;;;20.77;18.67;;;;;;;;;;4973605;28;20222;-75
2023/10/09 12:28:04;;;;;;;22.38;20.25;;;;;;;;;;4958719;28;20260;-74
2023/10/09 12:30:29;;;;;;;21.10;19.15;;;;;;;;;;4964067;28;20226;-75
2023/10/09 12:32:58;;;;;;;21.17;19.17;;;;;;;;;;4977633;28;20236;-73
2023/10/09 12:35:28;;;;;;;21.73;19.70;;;;;;;;;;4969603;28;20225;-74
2023/10/09 12:37:58;;;;;;;22.23;19.90;;;;;;;;;;4949069;28;20675;-74
2023/10/09 12:43:17;;;;;;;21.23;19.25;;;;;;;;;;4950654;28;20273;-79
2023/10/09 12:45:45;;;;;;;19.90;17.80;;;;;;;;;;4989570;28;20744;-78
2023/10/09 12:48:14;;;;;;;20.30;18.40;;;;;;;;;;4971577;28;20282;-78
2023/10/09 12:50:44;;;;;;;17.23;15.52;;;;;;;;;;4975620;28;20292;-78
2023/10/09 12:53:10;;;;;;;17.98;16.25;;;;;;;;;;4964185;28;20307;-78
2023/10/09 12:55:40;;;;;;;18.33;16.63;;;;;;;;;;4975910;28;20282;-79
2023/10/09 12:58:08;;;;;;;18.67;16.75;;;;;;;;;;4986202;28;20846;-78
2023/10/09 13:00:39;;;;;;;21.35;17.38;;;;;;;;;;4975445;28;20221;-77
2023/10/09 13:03:28;;;;;;;18.50;16.63;;;;;;;;;;4984765;28;20233;-78
2023/10/09 13:05:56;;;;;;;19.55;17.55;;;;;;;;;;4990549;28;20220;-78
2023/10/09 13:08:31;;;;;;;17.90;15.75;;;;;;;;;;4951381;28;20226;-78
2023/10/09 13:11:04;;;;;;;17.50;15.77;;;;;;;;;;4972259;28;20225;-78
2023/10/09 13:13:50;;;;;;;17.90;16.08;;;;;;;;;;4967284;28;20236;-78
2023/10/09 13:16:27;;;;;;;18.00;16.17;;;;;;;;;;4985815;28;20210;-78
2023/10/09 13:18:59;;;;;;;19.45;17.50;;;;;;;;;;4988575;28;20247;-78
2023/10/09 13:21:31;;;;;;;24.83;22.35;;;;;;;;;;4966368;28;20218;-78
2023/10/09 13:24:01;;;;;;;24.85;22.55;;;;;;;;;;4955136;28;20241;-79
2023/10/09 13:26:30;;;;;;;18.77;16.98;;;;;;;;;;4975367;28;20217;-78
2023/10/09 13:28:58;;;;;;;17.23;15.63;;;;;;;;;;4983921;28;20225;-78
2023/10/09 13:31:27;;;;;;;28.60;25.08;;;;;;;;;;4986438;28;20252;-78
2023/10/09 13:33:56;;;;;;;17.58;16.02;;;;;;;;;;4963537;28;20232;-78
2023/10/09 13:36:33;;;;;;;12.85;11.68;;;;;;;;;;4982630;28;20224;-77
2023/10/09 13:41:46;;;;;;;11.75;10.65;;;;;;;;;;4960464;28;20663;-78
2023/10/09 13:44:15;;;;;;;12.88;10.02;;;;;;;;;;4961618;28;20233;-77
2023/10/09 13:46:50;;;;;;;11.32;9.90;;;;;;;;;;4951392;28;20293;-79
2023/10/09 13:49:15;;;;;;;13.88;8.45;;;;;;;;;;4973309;28;20239;-79
2023/10/09 13:51:44;;;;;;;8.80;7.90;;;;;;;;;;4973823;28;20214;-78
2023/10/09 13:54:28;;;;;;;7.18;6.53;;;;;;;;;;4959188;28;20217;-78
2023/10/09 13:56:57;;;;;;;6.32;5.70;;;;;;;;;;4976955;28;20224;-79
2023/10/09 13:59:27;;;;;;;5.35;4.95;;;;;;;;;;4972338;28;20224;-77
2023/10/09 14:01:56;;;;;;;4.70;4.30;;;;;;;;;;4972751;28;20218;-80
2023/10/09 14:04:28;;;;;;;5.00;4.50;;;;;;;;;;4970221;28;20257;-80
2023/10/09 14:07:01;;;;;;;4.65;4.25;;;;;;;;;;4983502;28;20226;-80
2023/10/09 14:09:31;;;;;;;5.03;4.10;;;;;;;;;;4980696;28;20698;-78
2023/10/09 14:12:08;;;;;;;4.03;3.67;;;;;;;;;;4975662;28;20276;-78
2023/10/09 14:14:53;;;;;;;5.18;4.10;;;;;;;;;;4971398;28;20255;-77
2023/10/09 14:17:30;;;;;;;4.97;4.18;;;;;;;;;;4979543;28;20244;-77
2023/10/09 14:20:25;;;;;;;3.45;3.20;;;;;;;;;;4967048;28;20251;-78
2023/10/09 14:22:42;;;;;;;3.45;3.15;;;;;;;;;;4962554;28;20226;-79
2023/10/09 14:25:14;;;;;;;3.67;3.30;;;;;;;;;;4981838;28;20213;-80
2023/10/09 14:27:40;;;;;;;3.80;3.50;;;;;;;;;;4993438;28;20233;-77
2023/10/09 14:30:18;;;;;;;3.38;3.08;;;;;;;;;;4989914;28;20224;-79
2023/10/09 14:32:51;;;;;;;3.53;3.00;;;;;;;;;;4993818;28;20328;-78
2023/10/09 14:35:21;;;;;;;3.65;3.15;;;;;;;;;;4976382;28;20229;-78
2023/10/09 14:37:51;;;;;;;3.40;2.97;;;;;;;;;;4979213;28;20230;-79
2023/10/09 14:40:20;;;;;;;3.20;2.90;;;;;;;;;;4990694;28;20229;-79
2023/10/09 14:42:46;;;;;;;4.47;3.17;;;;;;;;;;4979619;23;20264;-72
2023/10/09 14:45:18;;;;;;;2.88;2.67;;;;;;;;;;4975054;28;20332;-73
2023/10/09 14:47:43;;;;;;;5.18;3.45;;;;;;;;;;4970436;28;20232;-73
2023/10/09 14:50:13;;;;;;;3.35;3.03;;;;;;;;;;4978086;28;20217;-73
2023/10/09 14:52:41;;;;;;;7.30;2.80;;;;;;;;;;4991324;28;20300;-71
2023/10/09 14:55:08;;;;;;;2.92;2.58;;;;;;;;;;4973531;28;20299;-73
2023/10/09 14:57:34;;;;;;;5.03;2.88;;;;;;;;;;5005055;28;20712;-73
2023/10/09 15:00:01;;;;;;;3.42;2.70;;;;;;;;;;4989501;28;20283;-73
2023/10/09 15:02:26;;;;;;;3.33;3.00;;;;;;;;;;5006030;28;20227;-73
2023/10/09 15:04:52;;;;;;;3.70;3.30;;;;;;;;;;4972578;28;20224;-72
2023/10/09 15:07:20;;;;;;;3.75;3.45;;;;;;;;;;5001624;28;20710;-73
2023/10/09 15:09:50;;;;;;;3.67;3.38;;;;;;;;;;4990590;28;20266;-73
2023/10/09 15:12:19;;;;;;;5.63;3.75;;;;;;;;;;4991846;28;20745;-72
2023/10/09 15:14:47;;;;;;;3.97;3.60;;;;;;;;;;4989717;28;20359;-73
2023/10/09 15:17:17;;;;;;;5.50;3.88;;;;;;;;;;4987661;28;20228;-73
2023/10/09 15:19:45;;;;;;;4.00;3.60;;;;;;;;;;4986566;28;20659;-74
2023/10/09 15:22:15;;;;;;;4.43;3.55;;;;;;;;;;5004125;28;20399;-74
2023/10/09 15:24:43;;;;;;;3.90;3.40;;;;;;;;;;4999894;28;20239;-73
2023/10/09 15:27:13;;;;;;;31.85;28.45;;;;;;;;;;5002521;28;20304;-72
2023/10/09 15:29:44;;;;;;;6.13;4.20;;;;;;;;;;4998441;28;20656;-73
2023/10/09 15:32:15;;;;;;;4.65;3.20;;;;;;;;;;5004483;28;20216;-74
2023/10/09 15:34:43;;;;;;;5.03;3.42;;;;;;;;;;4976864;28;20667;-73
2023/10/09 15:37:13;;;;;;;12.90;11.60;;;;;;;;;;4992462;28;20228;-73
2023/10/09 15:39:42;;;;;;;8.35;7.53;;;;;;;;;;5023733;28;20217;-72
2023/10/09 15:42:13;;;;;;;20.77;16.13;;;;;;;;;;4978988;28;20221;-72
2023/10/09 15:44:38;;;;;;;9.20;6.55;;;;;;;;;;4988491;28;20282;-72
2023/10/09 15:47:08;;;;;;;8.75;5.70;;;;;;;;;;5005958;28;20576;-72
2023/10/09 15:49:41;;;;;;;5.65;4.35;;;;;;;;;;4992579;28;20724;-75
2023/10/09 15:52:14;;;;;;;8.60;5.15;;;;;;;;;;4998143;28;20325;-73
2023/10/09 15:54:47;;;;;;;8.73;6.07;;;;;;;;;;4977203;28;20259;-72
2023/10/09 15:57:13;;;;;;;6.25;4.50;;;;;;;;;;5001302;28;20227;-72
2023/10/09 15:59:45;;;;;;;4.80;3.40;;;;;;;;;;4979036;28;20196;-72
2023/10/09 16:02:13;;;;;;;7.28;3.72;;;;;;;;;;4991130;28;20717;-72
2023/10/09 16:04:41;;;;;;;5.85;3.40;;;;;;;;;;5011222;28;20252;-72
2023/10/09 16:07:09;;;;;;;4.25;3.13;;;;;;;;;;4997265;28;20241;-73
2023/10/09 16:12:04;;;;;;;4.97;3.60;;;;;;;;;;5004120;28;20229;-82
2023/10/09 16:14:30;;;;;;;4.95;3.35;;;;;;;;;;4982830;28;20237;-83
2023/10/09 16:16:59;;;;;;;6.05;3.00;;;;;;;;;;4994303;28;20220;-83
2023/10/09 16:19:47;;;;;;;6.82;3.08;;;;;;;;;;4955560;28;20458;-82
2023/10/09 16:22:17;;;;;;;4.70;2.95;;;;;;;;;;5007499;28;20239;-81
2023/10/09 16:24:46;;;;;;;4.03;2.75;;;;;;;;;;4976436;28;20236;-82
2023/10/09 16:27:14;;;;;;;3.30;2.35;;;;;;;;;;4951574;28;20221;-84
2023/10/09 16:29:44;;;;;;;6.05;2.28;;;;;;;;;;4974845;28;20213;-81
2023/10/09 16:32:11;;;;;;;3.97;1.95;;;;;;;;;;4988188;28;20221;-81
2023/10/09 16:34:38;;;;;;;4.28;2.40;;;;;;;;;;4961440;28;20686;-81
2023/10/09 16:37:08;;;;;;;3.40;2.28;;;;;;;;;;4986928;28;20580;-82
2023/10/09 16:39:38;;;;;;;8.93;2.35;;;;;;;;;;5011671;28;20963;-82
2023/10/09 16:42:09;;;;;;;3.33;2.50;;;;;;;;;;4955241;28;20218;-83
2023/10/09 16:44:40;;;;;;;3.88;2.58;;;;;;;;;;4981641;28;20788;-84
2023/10/09 16:47:11;;;;;;;4.40;2.60;;;;;;;;;;4977357;28;20221;-84
2023/10/09 16:49:41;;;;;;;3.60;1.90;;;;;;;;;;4973741;28;20240;-84
2023/10/09 16:52:11;;;;;;;2.47;2.13;;;;;;;;;;4968180;28;20232;-83
2023/10/09 16:54:43;;;;;;;2.30;2.10;;;;;;;;;;4961246;28;20315;-83
2023/10/09 16:57:12;;;;;;;4.82;1.42;;;;;;;;;;4992668;28;20224;-84
2023/10/09 16:59:38;;;;;;;1.95;1.38;;;;;;;;;;4975270;28;20213;-85
2023/10/09 17:02:07;;;;;;;3.08;1.73;;;;;;;;;;4978478;28;20232;-84
2023/10/09 17:04:37;;;;;;;1.95;1.55;;;;;;;;;;4994174;28;20232;-84
2023/10/09 17:07:14;;;;;;;3.50;1.95;;;;;;;;;;4956025;28;20628;-86
2023/10/09 17:09:42;;;;;;;1.98;1.73;;;;;;;;;;4979246;28;20216;-83
2023/10/09 17:12:17;;;;;;;2.75;1.40;;;;;;;;;;5009155;28;20217;-83
2023/10/09 17:14:46;;;;;;;3.53;1.85;;;;;;;;;;4988783;28;20224;-83
2023/10/09 17:17:15;;;;;;;2.28;1.50;;;;;;;;;;4990904;28;20213;-83
2023/10/09 17:19:48;;;;;;;2.85;1.88;;;;;;;;;;4967666;28;20312;-83
2023/10/09 17:22:13;;;;;;;2.30;1.75;;;;;;;;;;4980394;28;20228;-85
2023/10/09 17:24:45;;;;;;;5.82;4.85;;;;;;;;;;4982657;28;20229;-83
2023/10/09 17:27:17;;;;;;;4.82;4.32;;;;;;;;;;4956347;28;20313;-83
2023/10/09 17:29:46;;;;;;;2.00;1.80;;;;;;;;;;4992495;28;20259;-83
2023/10/09 17:32:16;;;;;;;8.50;7.53;;;;;;;;;;4982923;28;20316;-84
2023/10/09 17:34:43;;;;;;;4.72;2.47;;;;;;;;;;4982362;28;20274;-84
2023/10/09 17:37:12;;;;;;;2.35;2.20;;;;;;;;;;4979880;28;20225;-83
2023/10/09 17:39:40;;;;;;;8.57;1.65;;;;;;;;;;4970512;28;20300;-84
2023/10/09 17:42:08;;;;;;;4.30;1.63;;;;;;;;;;4975341;28;20217;-86
2023/10/09 17:44:38;;;;;;;3.40;2.10;;;;;;;;;;4976732;28;20593;-85